• Join FlightAware (Why Join?)
  • Login
  • US Flag 
08:17AM EDT


 

Airport Tracker/Info


-or-


 

Live Flight TrackerFlight Track Log ✈ SWA1787 ✈ 20-Jul-2013 ✈ KPVD - KTPA

Flight Track Log - Related Links

Times and Time Zones

All times are in EDT time to prevent confusion due to time zone crossing. See the SWA1787 flight status page for this flight to view local times or setup timezone preferences in your user account.

Time Position Orientation Groundspeed Altitude Reporting Facility
EDT Latitude Longitude Course Direction KTS MPH feet Rate Location/Type
04:36PM 41.7061 -71.4419 161° South 144 166 1,100  Level Boston Center
04:36PM 41.6831 -71.4311 161° South 214 246 1,900 1,800 Climbing Boston Center
04:37PM 41.6308 -71.4014 157° South 246 283 4,000 1,980 Climbing Boston Center
04:38PM 41.5556 -71.3775 167° South 246 283 5,900 2,580 Climbing Boston Center
04:39PM 41.4906 -71.3536 165° South 264 304 9,200 3,300 Climbing Boston Center
04:40PM 41.4111 -71.3275 166° South 264 304 12,600 3,000 Climbing Boston Center
04:41PM 41.3403 -71.3039 166° South 284 327 15,200 2,880 Climbing Boston Center
04:42PM 41.2503 -71.2750 166° South 296 341 18,400 2,520 Climbing Boston Center
04:43PM 41.1775 -71.2847 186° South 283 326 20,300 2,100 Climbing Boston Center
04:44PM 41.1219 -71.3656 228° Southwest 263 303 22,600 2,100 Climbing Boston Center
04:45PM 41.0644 -71.4489 228° Southwest 285 328 24,500 1,920 Climbing Boston Center
04:46PM 41.0067 -71.5408 230° Southwest 306 352 26,500 1,440 Climbing Boston Center
04:47PM 40.9469 -71.6350 230° Southwest 330 380 27,400 600 Climbing Boston Center
04:48PM 40.8747 -71.7428 228° Southwest 364 419 27,800 600 Climbing Boston Center
04:49PM 40.7964 -71.8589 228° Southwest 406 467 28,600 1,260 Climbing Boston Center
04:50PM 40.7011 -71.9831 225° Southwest 428 493 30,400 1,740 Climbing Boston Center
04:51PM 40.6203 -72.1067 229° Southwest 434 499 32,100 1,620 Climbing Boston Center
04:52PM 40.5414 -72.2244 229° Southwest 439 505 33,700 1,500 Climbing Boston Center
04:53PM 40.4622 -72.3392 228° Southwest 439 505 35,200 1,320 Climbing Boston Center
04:54PM 40.3894 -72.4592 231° Southwest 434 499 36,400 1,140 Climbing Boston Center
04:55PM 40.3081 -72.5733 227° Southwest 433 498 37,500 720 Climbing Boston Center
04:56PM 40.2308 -72.6903 229° Southwest 433 498 37,900 180 Climbing Boston Center
04:57PM 40.1514 -72.8067 228° Southwest 433 498 37,900  Level Boston Center
04:59PM 40.0411 -72.9711 229° Southwest 428 493 37,900  Level Washington Center
05:00PM 39.9622 -73.0875 229° Southwest 422 486 37,900  Level Washington Center
05:01PM 39.8833 -73.2014 228° Southwest 422 486 37,900  Level Washington Center
05:02PM 39.8064 -73.3092 227° Southwest 422 486 37,900  Level Washington Center
05:03PM 39.7211 -73.4306 228° Southwest 422 486 37,900  Level Washington Center
05:04PM 39.6375 -73.5383 225° Southwest 422 486 37,900  Level Washington Center
05:05PM 39.5411 -73.6244 215° Southwest 422 486 37,900  Level Washington Center
05:06PM 39.4444 -73.7131 215° Southwest 427 491 37,900  Level Washington Center
05:07PM 39.3458 -73.7989 214° Southwest 432 497 37,900  Level Washington Center
05:08PM 39.2594 -73.8761 215° Southwest 432 497 37,900  Level Washington Center
05:09PM 39.1564 -73.9642 214° Southwest 432 497 37,900  Level Washington Center
05:10PM 39.0575 -74.0547 215° Southwest 437 503 37,900  Level Washington Center
05:11PM 38.9586 -74.1394 214° Southwest 437 503 37,900  Level Washington Center
05:12PM 38.8575 -74.2294 215° Southwest 437 503 37,900  Level Washington Center
05:13PM 38.7583 -74.3164 214° Southwest 437 503 37,900  Level Washington Center
05:14PM 38.6572 -74.4058 215° Southwest 437 503 37,900  Level Washington Center
05:15PM 38.5558 -74.4925 214° Southwest 437 503 37,900  Level Washington Center
05:16PM 38.4544 -74.5764 213° Southwest 442 509 37,900  Level Washington Center
05:17PM 38.3531 -74.6650 214° Southwest 442 509 37,900  Level Washington Center
05:18PM 38.2536 -74.7536 215° Southwest 442 509 37,900  Level Washington Center
05:19PM 38.1497 -74.8392 213° Southwest 447 514 37,900  Level Washington Center
05:20PM 38.0481 -74.9272 214° Southwest 447 514 37,900  Level Washington Center
05:21PM 37.9464 -75.0150 214° Southwest 447 514 37,900  Level Washington Center
05:22PM 37.8425 -75.1000 213° Southwest 447 514 37,900  Level Washington Center
05:23PM 37.7428 -75.1875 215° Southwest 447 514 37,900  Level Washington Center
05:24PM 37.6389 -75.2719 213° Southwest 447 514 37,900  Level Washington Center
05:25PM 37.5347 -75.3586 213° Southwest 447 514 37,900  Level Washington Center
05:26PM 37.4306 -75.4428 213° Southwest 452 520 37,900  Level Washington Center
05:27PM 37.3264 -75.5292 213° Southwest 452 520 37,900  Level Washington Center
05:28PM 37.2117 -75.6258 214° Southwest 452 520 37,900  Level Washington Center
05:29PM 37.1156 -75.7014 212° Southwest 452 520 37,900  Level Washington Center
05:30PM 37.0133 -75.7844 213° Southwest 452 520 37,900  Level Washington Center
05:31PM 36.8922 -75.8803 212° Southwest 466 536 38,000  Climbing Washington Center
05:32PM 36.7856 -75.9681 213° Southwest 466 536 38,000 -60 Level Washington Center
05:33PM 36.6747 -76.0556 212° Southwest 466 536 37,900 -60 Descending Washington Center
05:34PM 36.5761 -76.1403 215° Southwest 458 527 37,900  Level Washington Center
05:35PM 36.4694 -76.2247 212° Southwest 453 521 37,900  Level Washington Center
05:36PM 36.3647 -76.3092 213° Southwest 458 527 37,900  Level Washington Center
05:37PM 36.2578 -76.3956 213° Southwest 458 527 37,900  Level Washington Center
05:38PM 36.1506 -76.4769 212° Southwest 458 527 37,900  Level Washington Center
05:39PM 36.0436 -76.5656 214° Southwest 464 534 37,900  Level Washington Center
05:40PM 35.9344 -76.6489 212° Southwest 464 534 37,900  Level Washington Center
05:41PM 35.8272 -76.7347 213° Southwest 464 534 37,900  Level Washington Center
05:42PM 35.7178 -76.8200 212° Southwest 464 534 37,900  Level Washington Center
05:43PM 35.6147 -76.9053 214° Southwest 464 534 38,000  Climbing Washington Center
05:44PM 35.5031 -76.9903 212° Southwest 459 528 38,000 -60 Level Washington Center
05:45PM 35.3936 -77.0725 211° Southwest 466 536 37,900  Descending Washington Center
05:46PM 35.2861 -77.1569 213° Southwest 466 536 38,000  Climbing Washington Center
05:47PM 35.1706 -77.2208 204° Southwest 455 524 38,000  Level Washington Center
05:48PM 35.0511 -77.2667 197° South 449 517 38,000  Level Washington Center
05:49PM 34.9294 -77.3147 198° South 461 531 38,000 -60 Level Washington Center
05:50PM 34.8097 -77.3628 198° South 467 537 37,900 -60 Descending Washington Center
05:51PM 34.6881 -77.4106 198° South 467 537 37,900  Level Washington Center
05:52PM 34.5642 -77.4583 198° South 467 537 37,900  Level Washington Center
05:53PM 34.4422 -77.5083 199° South 467 537 37,900  Level Washington Center
05:54PM 34.3206 -77.5533 197° South 467 537 37,900  Level Washington Center
05:55PM 34.2008 -77.6008 198° South 467 537 37,900  Level Washington Center
05:55PM 34.1228 -77.6250 194° South 466 536 37,900  Level Jacksonville Center
05:56PM 33.9997 -77.6775 199° South 467 537 38,000  Climbing Jacksonville Center
05:57PM 33.8806 -77.7197 196° South 467 537 38,000  Level Jacksonville Center
05:58PM 33.7575 -77.7694 199° South 462 532 38,000 -60 Level Jacksonville Center
05:59PM 33.6342 -77.8139 197° South 462 532 37,900 -60 Descending Jacksonville Center
06:00PM 33.5128 -77.8608 198° South 462 532 37,900  Level Jacksonville Center
06:01PM 33.3894 -77.9075 198° South 457 526 37,900  Level Jacksonville Center
06:02PM 33.2722 -77.9514 197° South 452 520 37,900  Level Jacksonville Center
06:03PM 33.1531 -77.9978 198° South 457 526 37,900  Level Jacksonville Center
06:04PM 33.0336 -78.0414 197° South 457 526 37,900  Level Jacksonville Center
06:05PM 32.9142 -78.0850 197° South 457 526 37,900  Level Jacksonville Center
06:06PM 32.7931 -78.1333 199° South 457 526 37,900  Level Jacksonville Center
06:07PM 32.6756 -78.1742 196° South 457 526 37,900  Level Jacksonville Center
06:08PM 32.5539 -78.2100 194° South 452 520 37,900  Level Jacksonville Center
06:09PM 32.4294 -78.2336 189° South 452 520 37,900  Level Jacksonville Center
06:10PM 32.2903 -78.2556 188° South 452 520 37,900  Level Jacksonville Center
06:11PM 32.1678 -78.2739 187° South 452 520 37,900  Level Jacksonville Center
06:12PM 32.0433 -78.2925 187° South 458 527 37,900  Level Jacksonville Center
06:13PM 31.9189 -78.3108 187° South 458 527 37,900  Level Jacksonville Center
06:14PM 31.7900 -78.3294 187° South 464 534 37,900  Level Jacksonville Center
06:15PM 31.6694 -78.3453 186° South 456 525 37,900  Level Jacksonville Center
06:16PM 31.5428 -78.3636 187° South 461 531 37,900  Level Jacksonville Center
06:17PM 31.4161 -78.3819 187° South 460 529 37,900  Level Jacksonville Center
06:18PM 31.2917 -78.4000 187° South 447 514 37,900  Level Jacksonville Center
06:19PM 31.1650 -78.4183 187° South 458 527 37,900  Level Jacksonville Center
06:20PM 31.0361 -78.4389 188° South 469 540 37,900  Level Jacksonville Center
06:21PM 30.9239 -78.4517 186° South 470 541 37,900  Level Jacksonville Center
06:22PM 30.7972 -78.4697 187° South 460 529 37,900  Level Jacksonville Center
06:23PM 30.6706 -78.4875 187° South 460 529 37,900  Level Jacksonville Center
06:24PM 30.5417 -78.5056 187° South 465 535 37,900  Level Jacksonville Center
06:28PM 30.1608 -78.6408 197° South 470 541 37,900  Level Miami Center
06:29PM 30.0536 -78.7206 213° Southwest 455 524 37,900  Level Miami Center
06:30PM 29.9439 -78.8192 218° Southwest 455 524 38,000  Climbing Miami Center
06:31PM 29.8425 -78.9011 215° Southwest 455 524 38,000  Level Miami Center
06:32PM 29.7514 -79.0019 224° Southwest 455 524 38,000 -480 Level Miami Center
06:33PM 29.6519 -79.0908 218° Southwest 455 524 37,100 -840 Descending Miami Center
06:34PM 29.5525 -79.1817 218° Southwest 460 529 36,200 -1,200 Descending Miami Center
06:35PM 29.4319 -79.2817 216° Southwest 455 524 34,500 -2,160 Descending Miami Center
06:36PM 29.3242 -79.3625 213° Southwest 460 529 31,900 -2,580 Descending Miami Center
06:37PM 29.2244 -79.4553 219° Southwest 465 535 29,400 -2,100 Descending Miami Center
06:38PM 29.1269 -79.5458 219° Southwest 464 534 27,700 -1,440 Descending Miami Center
06:39PM 29.0661 -79.6606 239° Southwest 438 504 26,600 -1,080 Descending Miami Center
06:40PM 29.0303 -79.7878 252° West 421 484 25,600 -1,020 Descending Miami Center
06:41PM 28.9922 -79.9078 250° West 416 479 24,600 -1,020 Descending Miami Center
06:42PM 28.9542 -80.0325 251° West 416 479 23,600 -840 Descending Miami Center
06:43PM 28.9181 -80.1525 251° West 410 472 23,000 -300 Descending Miami Center
06:44PM 28.8819 -80.2675 250° West 398 458 23,000 -1,200 Level Miami Center
06:46PM 28.8000 -80.5333 251° West 375 432 19,200 -1,500 Descending Orlando TRACON
06:47PM 28.7667 -80.6500 252° West 370 426 18,200 -960 Descending Orlando TRACON
06:48PM 28.7333 -80.7500 249° West 362 417 17,300 -960 Descending Orlando TRACON
06:49PM 28.7000 -80.8500 249° West 356 410 16,400 -660 Descending Orlando TRACON
06:50PM 28.6667 -80.9667 252° West 352 405 16,000 -240 Descending Orlando TRACON
06:51PM 28.6333 -81.0667 249° West 347 399 16,000  Level Orlando TRACON
06:52PM 28.6000 -81.1667 249° West 349 402 16,000 -60 Level Orlando TRACON
06:53PM 28.5667 -81.2667 249° West 348 400 15,900 -540 Descending Orlando TRACON
06:54PM 28.5333 -81.3667 249° West 348 400 15,000 -1,020 Descending Orlando TRACON
06:55PM 28.5167 -81.4667 259° West 343 395 14,000 -1,020 Descending Orlando TRACON
06:57PM 28.4833 -81.6667 259° West 335 386 12,000 -720 Descending Tampa TRACON
06:58PM 28.4667 -81.7500 257° West 300 345 12,000 -60 Level Tampa TRACON
06:59PM 28.4500 -81.8500 259° West 294 338 11,900 -480 Descending Tampa TRACON
07:00PM 28.4167 -81.9333 246° West 286 329 11,000 -540 Descending Tampa TRACON
07:01PM 28.3833 -82.0167 246° West 278 320 10,800 -960 Descending Tampa TRACON
07:02PM 28.3667 -82.1000 257° West 278 320 9,200 -1,740 Descending Tampa TRACON
07:03PM 28.3500 -82.1833 257° West 279 321 7,600 -1,200 Descending Tampa TRACON
07:04PM 28.3167 -82.2667 246° West 278 320 6,800 -1,200 Descending Tampa TRACON
07:05PM 28.2833 -82.3333 240° Southwest 275 316 5,200 -1,320 Descending Tampa TRACON
07:06PM 28.2333 -82.4000 230° Southwest 250 288 4,100 -1,020 Descending Tampa TRACON
07:07PM 28.1833 -82.4667 230° Southwest 247 284 3,000 -720 Descending Tampa TRACON
07:08PM 28.1333 -82.5000 210° Southwest 206 237 2,700 -600 Descending Tampa TRACON
07:09PM 28.0833 -82.5167 196° South 170 196 1,900 -780 Descending Tampa TRACON
07:10PM 28.0500 -82.5333 204° Southwest 135 155 1,200 -720 Descending Tampa TRACON